Time;durP1;ratioP1;P1;durP2;ratioP2;P2;SDS_P1;SDS_P2;PMS_P1;PMS_P2;Temp;Humidity;BMP_temperature;BMP_pressure;BME280_temperature;BME280_humidity;BME280_pressure;Samples;Min_cycle;Max_cycle;Signal;HPM_P1;HPM_P2
2022/03/30 00:01:26;;;;;;;18.52;15.63;;;12.50;89.20;;;;;;5948268;24;20463;-79
2022/03/30 00:03:53;;;;;;;18.35;16.60;;;12.50;89.00;;;;;;5946649;24;20227;-79
2022/03/30 00:06:20;;;;;;;17.13;15.32;;;12.60;89.30;;;;;;5947114;24;20266;-78
2022/03/30 00:08:47;;;;;;;19.98;16.90;;;12.60;88.60;;;;;;5947239;24;20668;-79
2022/03/30 00:11:14;;;;;;;17.45;15.77;;;12.70;88.20;;;;;;5948878;24;20295;-79
2022/03/30 00:13:42;;;;;;;16.35;14.70;;;12.80;87.50;;;;;;5947524;24;20184;-79
2022/03/30 00:16:11;;;;;;;17.07;15.47;;;12.80;87.10;;;;;;5948012;24;20224;-78
2022/03/30 00:18:38;;;;;;;17.63;15.68;;;12.90;86.80;;;;;;5944132;24;20486;-79
2022/03/30 00:21:06;;;;;;;15.80;14.23;;;12.90;86.60;;;;;;5947674;24;20275;-79
2022/03/30 00:23:33;;;;;;;18.03;16.17;;;13.00;87.00;;;;;;5945656;24;21207;-79
2022/03/30 00:26:00;;;;;;;16.38;14.75;;;13.10;87.60;;;;;;5945794;24;20446;-79
2022/03/30 00:28:28;;;;;;;18.20;16.37;;;13.10;86.80;;;;;;5946938;24;20215;-79
2022/03/30 00:30:56;;;;;;;18.90;16.90;;;13.10;86.80;;;;;;5936052;24;20983;-79
2022/03/30 00:33:24;;;;;;;19.98;16.38;;;13.20;87.10;;;;;;5936966;24;20742;-79
2022/03/30 00:35:51;;;;;;;18.75;16.23;;;13.20;87.50;;;;;;5946458;24;20208;-79
2022/03/30 00:38:18;;;;;;;18.87;16.87;;;13.10;87.80;;;;;;5948177;24;20271;-79
2022/03/30 00:40:45;;;;;;;20.58;17.40;;;13.10;88.00;;;;;;5952121;24;20526;-79
2022/03/30 00:43:12;;;;;;;19.52;16.80;;;13.00;88.40;;;;;;5947742;24;20179;-79
2022/03/30 00:45:39;;;;;;;18.38;16.52;;;13.00;88.70;;;;;;5947261;24;20615;-79
2022/03/30 00:48:08;;;;;;;18.67;16.93;;;12.90;88.90;;;;;;5948517;24;20183;-78
2022/03/30 00:50:35;;;;;;;18.48;16.50;;;12.90;89.40;;;;;;5947701;24;20534;-78
2022/03/30 00:53:03;;;;;;;19.10;17.25;;;12.80;89.80;;;;;;5947557;24;20192;-78
2022/03/30 00:55:30;;;;;;;19.08;17.08;;;12.70;90.10;;;;;;5944186;24;20228;-79
2022/03/30 00:57:58;;;;;;;17.90;16.02;;;12.70;90.10;;;;;;5948055;24;20203;-79
2022/03/30 01:00:25;;;;;;;17.40;15.55;;;12.70;90.20;;;;;;5947687;24;20211;-78
2022/03/30 01:02:53;;;;;;;19.03;16.93;;;12.80;90.40;;;;;;5948485;24;20258;-78
2022/03/30 01:05:21;;;;;;;20.08;18.08;;;12.80;90.20;;;;;;5944510;24;20949;-78
2022/03/30 01:07:48;;;;;;;19.95;17.70;;;12.70;90.10;;;;;;5948443;24;20264;-78
2022/03/30 01:10:17;;;;;;;20.13;18.00;;;12.50;90.50;;;;;;5946241;24;20547;-79
2022/03/30 01:12:44;;;;;;;18.75;16.65;;;12.20;90.80;;;;;;5947316;24;20194;-79
2022/03/30 01:15:13;;;;;;;19.40;17.33;;;12.10;91.10;;;;;;5946996;24;20204;-78
2022/03/30 01:17:41;;;;;;;18.80;16.88;;;12.10;91.40;;;;;;5948406;24;20199;-78
2022/03/30 01:20:10;;;;;;;19.58;17.58;;;12.00;91.40;;;;;;5947064;24;20714;-79
2022/03/30 01:22:39;;;;;;;19.70;17.77;;;12.10;91.60;;;;;;5947852;24;20200;-79
2022/03/30 01:25:07;;;;;;;18.38;16.42;;;12.10;91.70;;;;;;5945889;24;20192;-78
2022/03/30 01:27:34;;;;;;;19.98;17.95;;;12.20;91.60;;;;;;5938652;24;20270;-79
2022/03/30 01:32:53;;;;;;;18.45;16.50;;;12.20;91.30;;;;;;5943475;24;20630;-79
2022/03/30 01:35:20;;;;;;;20.42;18.23;;;12.20;91.00;;;;;;5946776;24;20191;-78
2022/03/30 01:37:49;;;;;;;21.48;17.90;;;12.20;91.30;;;;;;5948714;24;20196;-78
2022/03/30 01:40:16;;;;;;;19.95;16.90;;;12.20;91.30;;;;;;5939721;24;20291;-79
2022/03/30 01:42:43;;;;;;;19.63;17.38;;;12.30;91.30;;;;;;5947349;24;20184;-78
2022/03/30 01:45:12;;;;;;;22.35;19.88;;;12.30;91.10;;;;;;5946066;24;20271;-78
2022/03/30 01:47:40;;;;;;;21.13;17.85;;;12.30;91.50;;;;;;5951026;24;20191;-78
2022/03/30 01:50:09;;;;;;;19.15;17.15;;;12.20;91.60;;;;;;5955715;24;20192;-78
2022/03/30 01:52:36;;;;;;;18.60;16.60;;;12.20;91.60;;;;;;5944492;24;20275;-78
2022/03/30 01:55:05;;;;;;;22.35;17.65;;;12.10;91.40;;;;;;5943905;24;20191;-78
2022/03/30 01:57:32;;;;;;;19.58;17.50;;;12.10;91.70;;;;;;5935728;24;20302;-78
2022/03/30 01:59:59;;;;;;;19.75;17.40;;;12.10;91.70;;;;;;5947242;24;20266;-78
2022/03/30 02:02:27;;;;;;;19.02;17.13;;;12.10;91.90;;;;;;5946717;24;20584;-78
2022/03/30 02:04:53;;;;;;;19.30;17.30;;;12.10;91.90;;;;;;5945792;24;20230;-78
2022/03/30 02:07:20;;;;;;;18.80;16.90;;;12.20;92.30;;;;;;5948251;24;20202;-79
2022/03/30 02:09:48;;;;;;;19.58;17.45;;;12.20;93.10;;;;;;5946973;24;20219;-78
2022/03/30 02:12:16;;;;;;;22.75;18.48;;;12.10;94.20;;;;;;5946981;24;20191;-78
2022/03/30 02:14:43;;;;;;;21.65;19.48;;;12.00;95.30;;;;;;5947011;24;20190;-78
2022/03/30 02:17:10;;;;;;;18.25;16.30;;;11.90;96.30;;;;;;5947010;24;20219;-79
2022/03/30 02:19:37;;;;;;;16.67;13.52;;;11.80;95.70;;;;;;5948150;24;20207;-79
2022/03/30 02:22:04;;;;;;;17.85;13.38;;;11.70;95.80;;;;;;5945443;24;20568;-78
2022/03/30 02:24:32;;;;;;;16.95;12.75;;;11.70;96.30;;;;;;5946829;24;20187;-78
2022/03/30 02:26:59;;;;;;;16.70;13.05;;;11.80;96.20;;;;;;5946247;24;20198;-79
2022/03/30 02:29:27;;;;;;;14.80;13.20;;;12.00;95.40;;;;;;5948402;24;20352;-79
2022/03/30 02:31:55;;;;;;;16.95;13.43;;;12.10;95.90;;;;;;5947341;24;20298;-78
2022/03/30 02:34:22;;;;;;;16.52;13.00;;;12.30;96.50;;;;;;5948068;24;20275;-79
2022/03/30 02:36:49;;;;;;;17.88;13.20;;;12.40;97.00;;;;;;5946749;24;20217;-78
2022/03/30 02:39:18;;;;;;;15.82;13.55;;;12.50;97.30;;;;;;5950935;24;20278;-78
2022/03/30 02:41:44;;;;;;;18.48;15.80;;;12.70;97.90;;;;;;5947144;24;20211;-79
2022/03/30 02:44:12;;;;;;;16.40;14.52;;;12.80;98.40;;;;;;5949525;24;20267;-79
2022/03/30 02:46:41;;;;;;;18.55;16.35;;;12.80;98.30;;;;;;5946991;24;20219;-79
2022/03/30 02:49:09;;;;;;;19.30;16.27;;;12.90;98.20;;;;;;5947277;24;20207;-78
2022/03/30 02:51:36;;;;;;;20.20;18.10;;;12.90;97.60;;;;;;5947776;24;20211;-79
2022/03/30 02:54:03;;;;;;;19.40;17.50;;;12.80;98.00;;;;;;5948475;24;20310;-78
2022/03/30 02:56:30;;;;;;;19.73;17.83;;;12.80;98.00;;;;;;5945756;24;20216;-78
2022/03/30 02:58:58;;;;;;;20.15;18.25;;;12.80;98.30;;;;;;5947716;24;20801;-78
2022/03/30 03:01:25;;;;;;;19.55;16.65;;;12.70;98.20;;;;;;5947806;24;20282;-78
2022/03/30 03:03:53;;;;;;;20.77;18.67;;;12.70;97.90;;;;;;5949231;24;20216;-78
2022/03/30 03:06:20;;;;;;;19.80;17.80;;;12.70;97.90;;;;;;5946706;24;20219;-78
2022/03/30 03:08:47;;;;;;;20.17;17.77;;;12.70;97.90;;;;;;5929363;24;20439;-78
2022/03/30 03:11:14;;;;;;;20.40;18.30;;;12.70;97.80;;;;;;5948446;24;20665;-78
2022/03/30 03:13:41;;;;;;;20.50;18.50;;;12.70;97.60;;;;;;5948398;24;20470;-79
2022/03/30 03:16:08;;;;;;;20.67;18.48;;;12.70;97.60;;;;;;5946396;24;20299;-79
2022/03/30 03:18:36;;;;;;;21.15;17.98;;;12.70;97.60;;;;;;5948116;24;20990;-79
2022/03/30 03:21:04;;;;;;;20.80;18.70;;;12.60;97.70;;;;;;5947189;24;20204;-78
2022/03/30 03:23:31;;;;;;;19.73;17.73;;;12.50;97.70;;;;;;5926776;24;20282;-79
2022/03/30 03:25:58;;;;;;;21.30;19.20;;;12.50;97.90;;;;;;5946745;24;20298;-79
2022/03/30 03:28:25;;;;;;;20.27;17.83;;;12.50;98.00;;;;;;5948372;24;20282;-79
2022/03/30 03:30:52;;;;;;;21.80;19.48;;;12.40;98.10;;;;;;5946365;24;20227;-78
2022/03/30 03:33:19;;;;;;;22.20;19.90;;;12.40;98.90;;;;;;5946488;24;20799;-79
2022/03/30 03:35:47;;;;;;;21.48;19.17;;;12.30;99.50;;;;;;5947184;24;20658;-79
2022/03/30 03:38:15;;;;;;;20.58;18.38;;;12.30;99.20;;;;;;5949289;24;20188;-78
2022/03/30 03:40:42;;;;;;;20.38;18.38;;;12.30;99.00;;;;;;5946520;24;20211;-79
2022/03/30 03:43:10;;;;;;;21.40;19.10;;;12.20;99.90;;;;;;5947392;24;20238;-79
2022/03/30 03:45:37;;;;;;;20.75;18.55;;;12.20;99.80;;;;;;5945747;24;20278;-78
2022/03/30 03:48:05;;;;;;;22.13;19.13;;;12.20;99.90;;;;;;5948035;24;20191;-78
2022/03/30 03:50:32;;;;;;;22.02;19.73;;;12.10;99.90;;;;;;5948429;24;20254;-78
2022/03/30 03:53:01;;;;;;;22.65;19.13;;;12.00;99.90;;;;;;5947241;24;20643;-78
2022/03/30 03:55:33;;;;;;;22.25;19.88;;;11.80;99.90;;;;;;5945028;24;20214;-78
2022/03/30 03:58:01;;;;;;;20.25;18.15;;;11.70;99.90;;;;;;5947809;24;20321;-78
2022/03/30 04:00:28;;;;;;;21.38;19.08;;;11.60;99.90;;;;;;5946651;24;20207;-78
2022/03/30 04:02:55;;;;;;;21.05;18.85;;;11.60;99.90;;;;;;5947825;24;20266;-78
2022/03/30 04:05:22;;;;;;;21.13;18.80;;;11.50;99.90;;;;;;5946694;24;20210;-79
2022/03/30 04:07:49;;;;;;;20.75;18.60;;;11.50;99.90;;;;;;5954291;24;20642;-79
2022/03/30 04:10:16;;;;;;;23.48;20.98;;;11.40;99.90;;;;;;5959042;23;20240;-80
2022/03/30 04:12:44;;;;;;;23.60;19.98;;;11.40;99.90;;;;;;5946851;24;20183;-79
2022/03/30 04:15:11;;;;;;;22.08;19.83;;;11.40;99.90;;;;;;5938819;24;20192;-79
2022/03/30 04:17:46;;;;;;;22.35;19.95;;;11.30;99.90;;;;;;5938831;24;20215;-78
2022/03/30 04:20:14;;;;;;;22.52;19.75;;;11.30;99.90;;;;;;5939621;24;20560;-78
2022/03/30 04:22:41;;;;;;;22.02;19.83;;;11.30;99.90;;;;;;5948080;24;20187;-77
2022/03/30 04:25:09;;;;;;;22.95;20.63;;;11.30;99.90;;;;;;5947789;24;20281;-77
2022/03/30 04:27:36;;;;;;;22.48;19.98;;;11.30;99.90;;;;;;5948009;24;20187;-78
2022/03/30 04:30:05;;;;;;;25.23;21.45;;;11.30;99.90;;;;;;5945326;24;20204;-78
2022/03/30 04:32:32;;;;;;;23.50;21.00;;;11.20;99.90;;;;;;5945465;24;20239;-78
2022/03/30 04:34:59;;;;;;;23.55;21.15;;;11.20;99.90;;;;;;5950375;24;20188;-79
2022/03/30 04:37:26;;;;;;;24.52;22.02;;;11.20;99.90;;;;;;5947397;24;20214;-79
2022/03/30 04:39:54;;;;;;;24.92;22.33;;;11.20;99.90;;;;;;5933886;24;20283;-79
2022/03/30 04:42:21;;;;;;;24.20;21.80;;;11.20;99.90;;;;;;5941725;24;20235;-79
2022/03/30 04:44:48;;;;;;;24.27;21.15;;;11.30;99.90;;;;;;5944771;24;20219;-79
2022/03/30 04:47:17;;;;;;;23.73;21.23;;;11.40;99.90;;;;;;5942507;24;20699;-79
2022/03/30 04:49:44;;;;;;;21.60;19.30;;;11.40;99.90;;;;;;5946851;24;20266;-79
2022/03/30 04:52:11;;;;;;;22.42;17.60;;;11.40;99.90;;;;;;5946705;24;20192;-79
2022/03/30 04:54:38;;;;;;;21.45;19.20;;;11.20;99.90;;;;;;5948787;24;20274;-79
2022/03/30 04:57:06;;;;;;;20.73;18.25;;;11.10;99.90;;;;;;5945187;24;20251;-79
2022/03/30 04:59:33;;;;;;;20.65;18.25;;;10.90;99.90;;;;;;5948559;24;20215;-79
2022/03/30 05:02:00;;;;;;;22.33;18.73;;;10.70;99.90;;;;;;5946603;24;20270;-79
2022/03/30 05:04:32;;;;;;;24.23;18.77;;;10.70;99.90;;;;;;5946347;24;20274;-79
2022/03/30 05:06:59;;;;;;;19.20;15.82;;;10.60;99.90;;;;;;5934419;24;20512;-79
2022/03/30 05:09:26;;;;;;;21.42;18.13;;;10.40;99.90;;;;;;5942852;24;20282;-78
2022/03/30 05:11:53;;;;;;;23.13;18.00;;;10.20;99.90;;;;;;5939992;24;20625;-76
2022/03/30 05:14:20;;;;;;;22.67;20.10;;;10.00;99.90;;;;;;5938953;24;20190;-79
2022/03/30 05:16:47;;;;;;;22.60;20.30;;;9.90;99.90;;;;;;5946638;24;20212;-79
2022/03/30 05:19:14;;;;;;;22.30;19.38;;;9.90;99.90;;;;;;5946425;24;20205;-79
2022/03/30 05:21:42;;;;;;;24.52;18.80;;;9.90;99.90;;;;;;5947984;24;20198;-80
2022/03/30 05:24:09;;;;;;;22.20;19.17;;;9.90;99.90;;;;;;5944073;24;20198;-80
2022/03/30 05:26:36;;;;;;;22.98;18.73;;;9.80;99.90;;;;;;5947687;24;20677;-79
2022/03/30 05:29:03;;;;;;;23.88;20.77;;;9.60;99.90;;;;;;5947211;24;20200;-80
2022/03/30 05:31:30;;;;;;;23.92;20.13;;;9.50;99.90;;;;;;5941598;24;20298;-78
2022/03/30 05:33:57;;;;;;;23.38;18.45;;;9.50;99.90;;;;;;5938063;24;20202;-79
2022/03/30 05:36:24;;;;;;;25.27;18.38;;;9.40;99.90;;;;;;5921658;24;20274;-79
2022/03/30 05:38:52;;;;;;;24.42;20.75;;;9.30;99.90;;;;;;5942603;24;20193;-79
2022/03/30 05:41:19;;;;;;;25.48;19.48;;;9.30;99.90;;;;;;5923621;24;20378;-80
2022/03/30 05:43:47;;;;;;;24.23;19.60;;;9.20;99.90;;;;;;5928894;24;20190;-80
2022/03/30 05:46:14;;;;;;;22.42;19.95;;;9.20;99.90;;;;;;5924010;24;20192;-79
2022/03/30 05:48:41;;;;;;;22.90;19.83;;;9.20;99.90;;;;;;5946911;24;20202;-80
2022/03/30 05:51:08;;;;;;;28.80;19.73;;;9.20;99.90;;;;;;5941179;24;20214;-80
2022/03/30 05:53:35;;;;;;;21.85;19.55;;;9.30;99.90;;;;;;5942271;24;20186;-80
2022/03/30 05:56:04;;;;;;;23.48;19.85;;;9.30;99.90;;;;;;5945775;24;20196;-80
2022/03/30 05:58:31;;;;;;;27.75;20.95;;;9.40;99.90;;;;;;5947441;24;20223;-80
2022/03/30 06:00:58;;;;;;;24.65;19.75;;;9.50;99.90;;;;;;5944939;24;20229;-80
2022/03/30 06:03:25;;;;;;;23.52;20.38;;;9.60;99.90;;;;;;5947475;24;20190;-80
2022/03/30 06:05:52;;;;;;;23.73;19.35;;;9.60;99.90;;;;;;5946153;24;20187;-80
2022/03/30 06:08:19;;;;;;;24.30;20.08;;;9.60;99.90;;;;;;5948844;24;20273;-80
2022/03/30 06:10:46;;;;;;;27.67;20.17;;;9.70;99.90;;;;;;5947184;24;20705;-81
2022/03/30 06:13:14;;;;;;;27.75;21.23;;;9.70;99.90;;;;;;5947692;24;20190;-80
2022/03/30 06:15:41;;;;;;;25.45;20.55;;;9.70;99.90;;;;;;5945344;24;20204;-80
2022/03/30 06:18:11;;;;;;;26.65;20.65;;;9.70;99.90;;;;;;5948695;24;20226;-80
2022/03/30 06:20:39;;;;;;;25.27;22.33;;;9.80;99.90;;;;;;5937578;24;20215;-80
2022/03/30 06:23:06;;;;;;;24.05;21.60;;;9.80;99.90;;;;;;5936358;24;20510;-80
2022/03/30 06:25:33;;;;;;;24.65;19.98;;;9.90;99.90;;;;;;5947288;24;20274;-80
2022/03/30 06:28:00;;;;;;;23.88;21.38;;;10.00;99.90;;;;;;5944841;24;20292;-80
2022/03/30 06:30:29;;;;;;;30.52;20.98;;;10.00;99.90;;;;;;5938897;24;20211;-79
2022/03/30 06:32:57;;;;;;;25.17;21.35;;;10.00;99.90;;;;;;5946747;24;20186;-80
2022/03/30 06:35:25;;;;;;;26.58;21.73;;;10.00;99.90;;;;;;5944288;24;20270;-80
2022/03/30 06:37:52;;;;;;;23.85;21.33;;;10.10;99.90;;;;;;5952577;24;20262;-80
2022/03/30 06:40:19;;;;;;;25.27;20.30;;;10.10;99.90;;;;;;5936690;24;20221;-80
2022/03/30 06:42:48;;;;;;;25.58;19.95;;;10.10;99.90;;;;;;5946580;24;20670;-80
2022/03/30 06:45:15;;;;;;;21.10;18.92;;;10.10;99.90;;;;;;5950564;24;20198;-80
2022/03/30 06:47:44;;;;;;;25.38;19.45;;;9.90;99.90;;;;;;5947784;24;20278;-78
2022/03/30 06:50:13;;;;;;;23.45;20.73;;;9.90;99.90;;;;;;5946776;24;20681;-79
2022/03/30 06:52:41;;;;;;;22.67;19.25;;;9.80;99.90;;;;;;5945277;24;20187;-81
2022/03/30 06:55:09;;;;;;;27.95;22.00;;;9.80;99.90;;;;;;5942413;24;20691;-81
2022/03/30 06:57:36;;;;;;;23.27;20.83;;;9.80;99.90;;;;;;5939746;24;20301;-81
2022/03/30 07:00:04;;;;;;;27.52;22.05;;;9.80;99.90;;;;;;5939687;24;20242;-79
2022/03/30 07:02:31;;;;;;;25.92;22.45;;;9.70;99.90;;;;;;5948348;24;20255;-79
2022/03/30 07:04:59;;;;;;;29.17;24.27;;;9.70;99.90;;;;;;5928179;24;20520;-79
2022/03/30 07:10:17;;;;;;;25.48;21.92;;;9.70;99.90;;;;;;5939234;24;20211;-80
2022/03/30 07:12:46;;;;;;;27.63;23.10;;;9.70;99.90;;;;;;5943332;24;20186;-79
2022/03/30 07:15:13;;;;;;;26.55;21.77;;;9.70;99.90;;;;;;5946728;24;20194;-80
2022/03/30 07:17:50;;;;;;;27.67;22.75;;;9.70;99.90;;;;;;5947151;24;20229;-80
2022/03/30 07:20:20;;;;;;;29.73;21.98;;;9.80;99.90;;;;;;5946463;24;20328;-79
2022/03/30 07:22:48;;;;;;;28.73;22.88;;;9.80;99.90;;;;;;5938081;24;20601;-79
2022/03/30 07:25:16;;;;;;;26.20;23.45;;;9.70;99.90;;;;;;5944384;24;20235;-80
2022/03/30 07:27:47;;;;;;;29.35;23.48;;;9.70;99.90;;;;;;5946278;24;20646;-80
2022/03/30 07:30:15;;;;;;;26.75;23.95;;;9.70;99.90;;;;;;5949017;24;20302;-80
2022/03/30 07:32:46;;;;;;;28.73;24.10;;;9.70;99.90;;;;;;5940029;24;20200;-80
2022/03/30 07:35:15;;;;;;;26.80;24.00;;;9.70;99.90;;;;;;5946299;24;20273;-80
2022/03/30 07:37:44;;;;;;;24.73;22.02;;;9.70;99.90;;;;;;5940462;24;20574;-80
2022/03/30 07:40:13;;;;;;;32.17;24.92;;;9.80;99.90;;;;;;5944839;24;20697;-80
2022/03/30 07:42:41;;;;;;;27.75;22.30;;;9.80;99.90;;;;;;5945406;24;20508;-80
2022/03/30 07:45:09;;;;;;;28.23;23.92;;;9.90;99.90;;;;;;5944041;24;20189;-79
2022/03/30 07:47:36;;;;;;;25.98;23.17;;;9.80;99.90;;;;;;5937713;24;20213;-79
2022/03/30 07:50:05;;;;;;;27.48;23.13;;;9.90;99.90;;;;;;5947636;24;20211;-79
2022/03/30 07:52:32;;;;;;;27.17;22.80;;;9.90;99.90;;;;;;5946227;24;20187;-79
2022/03/30 07:55:00;;;;;;;25.65;22.30;;;10.00;99.90;;;;;;5941362;24;20226;-79
2022/03/30 07:57:28;;;;;;;25.30;22.35;;;10.00;99.90;;;;;;5942659;24;20224;-78
2022/03/30 07:59:55;;;;;;;26.05;23.33;;;10.10;99.90;;;;;;5945125;24;20282;-79
2022/03/30 08:02:23;;;;;;;26.73;22.33;;;10.20;99.90;;;;;;5942221;24;20254;-79
2022/03/30 08:04:50;;;;;;;25.88;22.83;;;10.20;99.90;;;;;;5944300;24;20596;-79
2022/03/30 08:07:18;;;;;;;27.98;22.90;;;10.20;99.90;;;;;;5940537;24;20282;-79
2022/03/30 08:09:45;;;;;;;28.23;21.60;;;10.20;99.90;;;;;;5928100;24;20670;-79
2022/03/30 08:12:15;;;;;;;26.20;22.40;;;10.20;99.90;;;;;;5945142;24;20248;-79
2022/03/30 08:14:43;;;;;;;25.75;22.60;;;10.20;99.90;;;;;;5947497;24;20198;-79
2022/03/30 08:17:10;;;;;;;27.23;23.30;;;10.20;99.90;;;;;;5943633;24;20202;-79
2022/03/30 08:19:38;;;;;;;30.23;23.52;;;10.20;99.90;;;;;;5945650;24;20228;-79
2022/03/30 08:24:50;;;;;;;27.20;23.15;;;10.20;99.90;;;;;;5945330;24;20222;-79
2022/03/30 08:27:21;;;;;;;31.27;24.88;;;10.30;99.90;;;;;;5945340;24;20639;-79
2022/03/30 08:29:48;;;;;;;33.47;26.92;;;10.40;99.90;;;;;;5941955;24;20242;-79
2022/03/30 08:32:17;;;;;;;33.35;26.60;;;10.40;99.90;;;;;;5944499;24;20234;-79
2022/03/30 08:34:44;;;;;;;30.27;27.02;;;10.50;99.90;;;;;;5945564;24;20263;-79
2022/03/30 08:37:12;;;;;;;39.83;30.63;;;10.60;99.90;;;;;;5943406;24;20192;-79
2022/03/30 08:39:39;;;;;;;49.03;38.83;;;10.60;99.90;;;;;;5945190;24;20229;-79
2022/03/30 08:42:08;;;;;;;68.22;49.00;;;10.70;99.90;;;;;;5947686;24;20191;-79
2022/03/30 08:44:38;;;;;;;90.70;60.42;;;10.70;99.90;;;;;;5946873;24;20188;-79
2022/03/30 08:47:06;;;;;;;79.32;55.05;;;10.70;99.90;;;;;;5929495;24;20723;-79
2022/03/30 08:49:35;;;;;;;76.13;53.80;;;10.60;99.90;;;;;;5929077;24;20734;-79
2022/03/30 08:52:04;;;;;;;77.75;54.92;;;10.60;99.90;;;;;;5942270;24;20687;-79
2022/03/30 08:54:31;;;;;;;65.70;47.58;;;10.70;99.90;;;;;;5942631;24;20207;-79
2022/03/30 08:56:58;;;;;;;59.65;46.05;;;10.70;99.90;;;;;;5943285;24;20270;-79
2022/03/30 08:59:25;;;;;;;63.70;47.67;;;10.80;99.90;;;;;;5946798;24;20256;-79
2022/03/30 09:01:57;;;;;;;70.80;49.20;;;10.80;99.90;;;;;;5943256;24;20222;-79
2022/03/30 09:04:25;;;;;;;69.60;50.35;;;10.90;99.90;;;;;;5939078;24;20216;-79
2022/03/30 09:06:54;;;;;;;64.50;47.40;;;10.90;99.90;;;;;;5945013;24;20187;-79
2022/03/30 09:09:31;;;;;;;61.38;47.13;;;11.00;99.90;;;;;;5929562;24;20320;-79
2022/03/30 09:11:59;;;;;;;63.03;46.22;;;11.00;99.90;;;;;;5944799;24;20722;-79
2022/03/30 09:14:31;;;;;;;57.08;40.90;;;11.00;99.90;;;;;;5940914;24;20716;-79
2022/03/30 09:17:01;;;;;;;53.40;41.35;;;11.00;99.90;;;;;;5942490;24;20583;-79
2022/03/30 09:19:30;;;;;;;52.08;38.30;;;10.90;99.90;;;;;;5944977;24;20230;-79
2022/03/30 09:21:58;;;;;;;54.75;38.22;;;11.00;99.90;;;;;;5940020;24;20187;-79
2022/03/30 09:24:26;;;;;;;44.55;34.78;;;11.00;99.90;;;;;;5946956;24;20187;-79
2022/03/30 09:26:55;;;;;;;48.80;35.60;;;11.10;99.90;;;;;;5941818;24;20235;-79
2022/03/30 09:29:24;;;;;;;45.15;35.28;;;11.10;99.90;;;;;;5941796;24;20211;-79
2022/03/30 09:31:52;;;;;;;40.85;31.42;;;11.20;99.90;;;;;;5941246;24;20203;-79
2022/03/30 09:34:21;;;;;;;44.85;34.85;;;11.30;99.90;;;;;;5944280;24;20234;-79
2022/03/30 09:36:52;;;;;;;48.45;36.65;;;11.30;99.90;;;;;;5946559;24;20187;-79
2022/03/30 09:39:30;;;;;;;50.30;34.63;;;11.20;99.90;;;;;;5940727;24;20243;-79
2022/03/30 09:41:59;;;;;;;46.38;36.05;;;11.20;99.90;;;;;;5943188;24;20187;-79
2022/03/30 09:44:28;;;;;;;45.65;33.40;;;11.20;99.90;;;;;;5937917;24;20194;-79
2022/03/30 09:46:58;;;;;;;40.53;31.85;;;11.30;99.90;;;;;;5941425;24;20195;-79
2022/03/30 09:49:41;;;;;;;41.00;32.63;;;11.20;99.90;;;;;;5944819;24;20290;-79
2022/03/30 09:52:13;;;;;;;46.10;32.67;;;11.30;99.90;;;;;;5943273;24;20194;-79
2022/03/30 09:54:44;;;;;;;39.00;30.27;;;11.40;99.90;;;;;;5932888;24;20274;-79
2022/03/30 09:57:18;;;;;;;38.67;28.52;;;11.40;99.90;;;;;;5936280;24;20191;-79
2022/03/30 09:59:59;;;;;;;33.15;26.55;;;11.50;99.90;;;;;;5944716;24;20219;-79
2022/03/30 10:02:30;;;;;;;31.42;25.70;;;11.50;99.90;;;;;;5945045;24;20195;-79
2022/03/30 10:04:59;;;;;;;26.92;23.98;;;11.50;99.90;;;;;;5942560;24;20351;-79
2022/03/30 10:07:28;;;;;;;31.85;24.63;;;11.50;99.90;;;;;;5942860;24;20270;-79
2022/03/30 10:09:56;;;;;;;32.03;24.73;;;11.50;99.90;;;;;;5945880;24;20286;-79
2022/03/30 10:12:24;;;;;;;26.52;20.38;;;11.50;99.90;;;;;;5944821;24;20207;-80
2022/03/30 10:14:51;;;;;;;20.25;18.13;;;11.50;99.90;;;;;;5927938;24;20283;-79
2022/03/30 10:17:19;;;;;;;26.08;21.00;;;11.60;99.90;;;;;;5938100;24;20304;-78
2022/03/30 10:19:46;;;;;;;25.23;21.13;;;11.60;99.90;;;;;;5942757;24;20219;-79
2022/03/30 10:22:34;;;;;;;22.45;18.27;;;11.70;99.90;;;;;;5946044;24;20180;-78
2022/03/30 10:25:12;;;;;;;22.90;18.25;;;11.80;99.90;;;;;;5942873;24;20549;-78
2022/03/30 10:27:46;;;;;;;25.02;18.25;;;11.80;99.90;;;;;;5931199;24;20249;-78
2022/03/30 10:30:13;;;;;;;22.38;15.20;;;11.80;99.90;;;;;;5953252;24;20683;-79
2022/03/30 10:32:41;;;;;;;22.17;11.20;;;11.70;99.90;;;;;;5954758;24;20199;-79
2022/03/30 10:35:11;;;;;;;13.18;9.90;;;11.60;99.90;;;;;;5955811;24;20192;-79
2022/03/30 10:37:42;;;;;;;12.88;9.82;;;11.60;99.90;;;;;;5953458;24;20191;-79
2022/03/30 10:40:19;;;;;;;18.60;9.80;;;11.50;99.90;;;;;;5955037;24;20218;-78
2022/03/30 10:43:00;;;;;;;11.27;9.38;;;11.60;99.90;;;;;;5944357;24;20202;-78
2022/03/30 10:45:33;;;;;;;13.40;10.00;;;11.70;99.90;;;;;;5931826;24;20267;-78
2022/03/30 10:48:09;;;;;;;16.50;9.95;;;11.80;99.90;;;;;;5942956;24;20213;-78
2022/03/30 10:50:39;;;;;;;16.58;9.63;;;11.80;99.90;;;;;;5937214;24;23122;-78
2022/03/30 10:53:51;;;;;;;10.82;9.02;;;12.00;99.90;;;;;;5939920;24;20191;-78
2022/03/30 10:56:34;;;;;;;14.25;9.02;;;12.20;99.90;;;;;;5946979;24;20249;-78
2022/03/30 10:59:10;;;;;;;10.57;8.07;;;12.50;99.90;;;;;;5943886;24;20738;-78
2022/03/30 11:01:41;;;;;;;13.15;8.65;;;12.60;99.90;;;;;;5941287;24;20195;-78
2022/03/30 11:04:22;;;;;;;14.60;9.20;;;12.70;99.90;;;;;;5943266;24;20188;-78
2022/03/30 11:07:37;;;;;;;12.70;9.05;;;12.80;99.90;;;;;;5945773;24;20857;-78
2022/03/30 11:10:29;;;;;;;12.35;8.50;;;12.60;99.90;;;;;;5924647;24;20655;-79
2022/03/30 11:13:02;;;;;;;13.32;7.80;;;12.40;99.90;;;;;;5940812;24;20642;-78
2022/03/30 11:15:30;;;;;;;13.65;8.65;;;12.30;99.90;;;;;;5938951;24;20202;-79
2022/03/30 11:18:18;;;;;;;13.45;7.97;;;12.30;99.90;;;;;;5946509;24;20192;-79
2022/03/30 11:21:20;;;;;;;12.15;8.65;;;12.30;99.90;;;;;;5937571;24;20191;-78
2022/03/30 11:23:56;;;;;;;12.25;8.85;;;12.30;99.90;;;;;;5962131;24;20619;-79
2022/03/30 11:26:24;;;;;;;10.90;8.45;;;12.30;99.90;;;;;;5940546;24;20194;-79
2022/03/30 11:28:51;;;;;;;9.90;8.48;;;12.30;99.90;;;;;;5949059;24;20632;-79
2022/03/30 11:31:22;;;;;;;12.07;8.15;;;12.40;99.90;;;;;;5953484;23;20623;-79
2022/03/30 11:34:23;;;;;;;11.05;8.07;;;12.30;99.90;;;;;;5950479;24;20199;-79
2022/03/30 11:36:51;;;;;;;13.30;7.60;;;12.20;99.90;;;;;;5947285;24;20608;-79
2022/03/30 11:39:23;;;;;;;12.60;7.15;;;12.10;99.90;;;;;;5954235;24;20222;-79
2022/03/30 11:41:57;;;;;;;10.43;8.68;;;12.20;99.90;;;;;;5950885;24;20200;-80
2022/03/30 11:47:13;;;;;;;10.07;8.10;;;12.30;99.90;;;;;;5947782;24;20377;-79
2022/03/30 11:49:50;;;;;;;10.65;8.32;;;12.20;99.90;;;;;;5956000;24;20270;-79
2022/03/30 11:52:17;;;;;;;12.35;8.35;;;12.20;99.90;;;;;;5946045;24;20199;-79
2022/03/30 11:54:48;;;;;;;11.02;8.90;;;12.20;99.90;;;;;;5956180;24;20662;-79
2022/03/30 11:57:17;;;;;;;11.40;8.23;;;12.30;99.90;;;;;;5936547;24;20196;-79
2022/03/30 11:59:54;;;;;;;11.40;8.13;;;12.30;99.90;;;;;;5945269;24;20223;-79
2022/03/30 12:02:22;;;;;;;10.13;8.00;;;12.50;99.90;;;;;;5944826;24;20327;-79
2022/03/30 12:04:50;;;;;;;8.95;8.07;;;12.50;99.90;;;;;;5955343;24;20278;-79
2022/03/30 12:07:19;;;;;;;10.07;8.80;;;12.50;99.90;;;;;;5958893;24;20674;-80
2022/03/30 12:09:47;;;;;;;12.40;9.27;;;12.50;99.90;;;;;;5959435;24;20217;-79
2022/03/30 12:12:26;;;;;;;26.25;21.23;;;12.50;99.90;;;;;;5947767;24;20259;-79
2022/03/30 12:14:57;;;;;;;12.50;9.43;;;12.40;99.90;;;;;;5947847;24;20201;-79
2022/03/30 12:17:25;;;;;;;19.55;10.52;;;12.40;99.90;;;;;;5955236;24;20204;-79
2022/03/30 12:19:52;;;;;;;12.80;9.18;;;12.40;99.90;;;;;;5941914;24;20262;-79
2022/03/30 12:22:19;;;;;;;14.13;10.05;;;12.50;99.90;;;;;;5947705;24;20215;-79
2022/03/30 12:24:46;;;;;;;12.05;10.45;;;12.50;99.90;;;;;;5960146;24;20195;-79
2022/03/30 12:27:13;;;;;;;14.20;9.75;;;12.60;99.90;;;;;;5958964;24;20213;-79
2022/03/30 12:29:44;;;;;;;12.40;10.07;;;12.60;99.90;;;;;;5962921;24;20238;-79
2022/03/30 12:32:15;;;;;;;10.52;9.40;;;12.50;99.90;;;;;;5950160;24;20227;-80
2022/03/30 12:34:43;;;;;;;9.52;8.73;;;12.40;99.90;;;;;;5945474;24;20193;-79
2022/03/30 12:37:11;;;;;;;10.63;9.73;;;12.00;99.90;;;;;;5945246;24;20262;-79
2022/03/30 12:39:40;;;;;;;12.30;11.30;;;11.60;99.90;;;;;;5947269;24;20715;-79
2022/03/30 12:42:09;;;;;;;9.52;8.73;;;11.40;99.90;;;;;;5948092;24;20230;-79
2022/03/30 12:44:38;;;;;;;9.88;9.07;;;11.20;99.90;;;;;;5945971;24;20202;-79
2022/03/30 12:47:16;;;;;;;9.23;8.43;;;11.00;99.90;;;;;;5946638;24;20195;-78
2022/03/30 12:49:43;;;;;;;8.80;8.07;;;10.80;99.90;;;;;;5947938;24;20250;-78
2022/03/30 12:52:13;;;;;;;8.20;7.53;;;10.70;99.90;;;;;;5949879;24;20215;-78